Dameron, Maryland
Current Conditions -  °F | °C
As of 1:27 PM on Wednesday 26 Nov 2014 (Local Time) from KNUI Reporting Station
Moderate Rain Moderate Rain  
Wind Chill: 33°   Ceiling: 1000
Heat Index: 40°   Visibility: 6mi
Dew Point: 35°   Wind: 12mph
Humidity: 83%   Direction: 10°N
Pressure: 29.81"   Gusts: 20mph
Location:  38.14°N, 76.35°W
Report Text: KNUI 261827Z AUTO 01010G17KT 330V040 6SM RA OVC010 04/02 A2981 RMK AO2 CIG 006V013 P0004 T00440017
Loading
Personal Weather Stations






























Interactive Weather Map New forecast layout! Learn more

10-Day Weather Forecast

Advertisements
Track Severe Weather on mobile